sensor_id;sensor_type;location;lat;lon;timestamp;pressure;altitude;pressure_sealevel;temperature;humidity
14120;BME280;7138;49.246;9.100;2023-03-04T00:00:17;99310.25;;;3.02;84.47
14120;BME280;7138;49.246;9.100;2023-03-04T00:02:43;99313.69;;;3.02;84.36
14120;BME280;7138;49.246;9.100;2023-03-04T00:05:10;99314.44;;;3.00;84.34
14120;BME280;7138;49.246;9.100;2023-03-04T00:07:36;99313.44;;;2.96;83.66
14120;BME280;7138;49.246;9.100;2023-03-04T00:10:05;99316.69;;;2.92;84.72
14120;BME280;7138;49.246;9.100;2023-03-04T00:12:31;99320.88;;;2.90;83.28
14120;BME280;7138;49.246;9.100;2023-03-04T00:14:56;99316.56;;;2.89;83.67
14120;BME280;7138;49.246;9.100;2023-03-04T00:17:22;99318.88;;;2.83;85.02
14120;BME280;7138;49.246;9.100;2023-03-04T00:19:49;99317.06;;;2.81;84.54
14120;BME280;7138;49.246;9.100;2023-03-04T00:22:15;99323.97;;;2.83;83.81
14120;BME280;7138;49.246;9.100;2023-03-04T00:24:41;99327.34;;;2.82;83.76
14120;BME280;7138;49.246;9.100;2023-03-04T00:27:08;99324.81;;;2.82;84.05
14120;BME280;7138;49.246;9.100;2023-03-04T00:29:34;99324.59;;;2.78;84.52
14120;BME280;7138;49.246;9.100;2023-03-04T00:31:59;99324.59;;;2.78;83.60
14120;BME280;7138;49.246;9.100;2023-03-04T00:34:25;99318.72;;;2.79;83.76
14120;BME280;7138;49.246;9.100;2023-03-04T00:36:51;99322.00;;;2.76;83.55
14120;BME280;7138;49.246;9.100;2023-03-04T00:39:17;99319.34;;;2.73;83.79
14120;BME280;7138;49.246;9.100;2023-03-04T00:41:46;99320.94;;;2.71;84.33
14120;BME280;7138;49.246;9.100;2023-03-04T00:44:13;99317.47;;;2.69;84.99
14120;BME280;7138;49.246;9.100;2023-03-04T00:46:39;99321.66;;;2.67;84.02
14120;BME280;7138;49.246;9.100;2023-03-04T00:49:05;99319.66;;;2.60;85.15
14120;BME280;7138;49.246;9.100;2023-03-04T00:51:31;99317.88;;;2.59;85.26
14120;BME280;7138;49.246;9.100;2023-03-04T00:53:56;99314.28;;;2.54;86.05
14120;BME280;7138;49.246;9.100;2023-03-04T00:56:22;99319.16;;;2.48;85.79
14120;BME280;7138;49.246;9.100;2023-03-04T00:58:48;99318.91;;;2.42;86.43
14120;BME280;7138;49.246;9.100;2023-03-04T01:01:16;99310.25;;;2.38;86.52
14120;BME280;7138;49.246;9.100;2023-03-04T01:03:41;99311.13;;;2.39;87.03
14120;BME280;7138;49.246;9.100;2023-03-04T01:06:08;99315.22;;;2.35;87.40
14120;BME280;7138;49.246;9.100;2023-03-04T01:08:33;99311.78;;;2.35;87.14
14120;BME280;7138;49.246;9.100;2023-03-04T01:10:59;99317.78;;;2.35;86.68
14120;BME280;7138;49.246;9.100;2023-03-04T01:13:25;99311.78;;;2.35;87.18
14120;BME280;7138;49.246;9.100;2023-03-04T01:15:51;99319.53;;;2.36;87.21
14120;BME280;7138;49.246;9.100;2023-03-04T01:18:18;99315.34;;;2.38;87.77
14120;BME280;7138;49.246;9.100;2023-03-04T01:20:44;99312.03;;;2.41;87.00
14120;BME280;7138;49.246;9.100;2023-03-04T01:23:09;99306.06;;;2.40;86.77
14120;BME280;7138;49.246;9.100;2023-03-04T01:25:35;99306.00;;;2.39;86.28
14120;BME280;7138;49.246;9.100;2023-03-04T01:28:01;99309.25;;;2.35;87.63
14120;BME280;7138;49.246;9.100;2023-03-04T01:30:27;99303.97;;;2.30;87.75
14120;BME280;7138;49.246;9.100;2023-03-04T01:32:53;99307.19;;;2.26;88.28
14120;BME280;7138;49.246;9.100;2023-03-04T01:35:20;99301.19;;;2.26;87.36
14120;BME280;7138;49.246;9.100;2023-03-04T01:37:46;99302.09;;;2.26;86.72
14120;BME280;7138;49.246;9.100;2023-03-04T01:40:13;99305.44;;;2.25;86.68
14120;BME280;7138;49.246;9.100;2023-03-04T01:42:39;99307.13;;;2.25;85.86
14120;BME280;7138;49.246;9.100;2023-03-04T01:45:10;99301.94;;;2.23;86.79
14120;BME280;7138;49.246;9.100;2023-03-04T01:47:37;99299.22;;;2.18;86.76
14120;BME280;7138;49.246;9.100;2023-03-04T01:50:10;99297.47;;;2.17;85.99
14120;BME280;7138;49.246;9.100;2023-03-04T01:52:40;99293.88;;;2.12;86.36
14120;BME280;7138;49.246;9.100;2023-03-04T01:55:15;99280.00;;;2.06;86.11
14120;BME280;7138;49.246;9.100;2023-03-04T01:57:41;99285.00;;;2.04;86.59
14120;BME280;7138;49.246;9.100;2023-03-04T02:00:22;99281.53;;;2.02;85.67
14120;BME280;7138;49.246;9.100;2023-03-04T02:02:52;99278.91;;;2.01;84.99
14120;BME280;7138;49.246;9.100;2023-03-04T02:05:19;99288.94;;;1.96;85.04
14120;BME280;7138;49.246;9.100;2023-03-04T02:07:47;99282.06;;;1.95;85.51
14120;BME280;7138;49.246;9.100;2023-03-04T02:10:13;99285.50;;;1.96;84.61
14120;BME280;7138;49.246;9.100;2023-03-04T02:12:40;99275.13;;;1.91;85.05
14120;BME280;7138;49.246;9.100;2023-03-04T02:15:07;99278.47;;;1.90;84.72
14120;BME280;7138;49.246;9.100;2023-03-04T02:17:34;99278.22;;;1.84;85.24
14120;BME280;7138;49.246;9.100;2023-03-04T02:20:09;99279.84;;;1.82;84.73
14120;BME280;7138;49.246;9.100;2023-03-04T02:22:48;99277.88;;;1.77;85.02
14120;BME280;7138;49.246;9.100;2023-03-04T02:25:23;99278.47;;;1.71;84.51
14120;BME280;7138;49.246;9.100;2023-03-04T02:27:54;99280.84;;;1.67;85.09
14120;BME280;7138;49.246;9.100;2023-03-04T02:30:22;99271.41;;;1.64;84.26
14120;BME280;7138;49.246;9.100;2023-03-04T02:32:50;99271.41;;;1.64;83.68
14120;BME280;7138;49.246;9.100;2023-03-04T02:35:16;99271.53;;;1.67;84.00
14120;BME280;7138;49.246;9.100;2023-03-04T02:37:42;99269.50;;;1.60;83.98
14120;BME280;7138;49.246;9.100;2023-03-04T02:40:15;99276.94;;;1.55;83.85
14120;BME280;7138;49.246;9.100;2023-03-04T02:42:43;99266.06;;;1.40;84.65
14120;BME280;7138;49.246;9.100;2023-03-04T02:45:41;99280.78;;;1.46;84.97
14120;BME280;7138;49.246;9.100;2023-03-04T02:48:08;99272.88;;;1.40;84.76
14120;BME280;7138;49.246;9.100;2023-03-04T02:50:38;99275.84;;;1.31;84.91
14120;BME280;7138;49.246;9.100;2023-03-04T02:53:05;99275.66;;;1.27;86.78
14120;BME280;7138;49.246;9.100;2023-03-04T02:55:31;99272.97;;;1.24;85.95
14120;BME280;7138;49.246;9.100;2023-03-04T02:57:58;99273.63;;;1.20;86.07
14120;BME280;7138;49.246;9.100;2023-03-04T03:00:25;99275.25;;;1.18;85.34
14120;BME280;7138;49.246;9.100;2023-03-04T03:02:52;99282.03;;;1.17;85.48
14120;BME280;7138;49.246;9.100;2023-03-04T03:05:19;99279.53;;;1.19;84.62
14120;BME280;7138;49.246;9.100;2023-03-04T03:07:45;99276.00;;;1.15;85.53
14120;BME280;7138;49.246;9.100;2023-03-04T03:10:11;99269.59;;;1.05;84.60
14120;BME280;7138;49.246;9.100;2023-03-04T03:12:37;99274.84;;;1.08;85.01
14120;BME280;7138;49.246;9.100;2023-03-04T03:15:04;99271.28;;;1.05;85.25
14120;BME280;7138;49.246;9.100;2023-03-04T03:17:30;99273.75;;;1.03;84.53
14120;BME280;7138;49.246;9.100;2023-03-04T03:19:57;99234.56;;;0.82;85.17
14120;BME280;7138;49.246;9.100;2023-03-04T03:22:22;99271.88;;;0.99;84.80
14120;BME280;7138;49.246;9.100;2023-03-04T03:24:48;99271.00;;;0.99;84.68
14120;BME280;7138;49.246;9.100;2023-03-04T03:27:14;99270.06;;;0.97;84.29
14120;BME280;7138;49.246;9.100;2023-03-04T03:29:40;99270.72;;;0.93;85.21
14120;BME280;7138;49.246;9.100;2023-03-04T03:32:06;99263.97;;;0.93;85.06
14120;BME280;7138;49.246;9.100;2023-03-04T03:34:33;99264.75;;;0.92;84.99
14120;BME280;7138;49.246;9.100;2023-03-04T03:37:00;99263.00;;;0.91;84.77
14120;BME280;7138;49.246;9.100;2023-03-04T03:39:26;99259.53;;;0.89;85.38
14120;BME280;7138;49.246;9.100;2023-03-04T03:41:52;99262.84;;;0.88;85.12
14120;BME280;7138;49.246;9.100;2023-03-04T03:44:17;99263.72;;;0.89;85.60
14120;BME280;7138;49.246;9.100;2023-03-04T03:46:43;99274.66;;;0.86;85.55
14120;BME280;7138;49.246;9.100;2023-03-04T03:49:09;99280.47;;;0.84;85.57
14120;BME280;7138;49.246;9.100;2023-03-04T03:51:35;99275.16;;;0.79;86.28
14120;BME280;7138;49.246;9.100;2023-03-04T03:54:02;99284.25;;;0.74;86.97
14120;BME280;7138;49.246;9.100;2023-03-04T03:56:28;99279.81;;;0.70;87.31
14120;BME280;7138;49.246;9.100;2023-03-04T03:58:54;99280.53;;;0.68;87.54
14120;BME280;7138;49.246;9.100;2023-03-04T04:01:20;99285.56;;;0.66;86.78
14120;BME280;7138;49.246;9.100;2023-03-04T04:03:46;99279.53;;;0.64;86.36
14120;BME280;7138;49.246;9.100;2023-03-04T04:06:11;99284.59;;;0.64;86.94
14120;BME280;7138;49.246;9.100;2023-03-04T04:08:37;99272.72;;;0.63;86.39
14120;BME280;7138;49.246;9.100;2023-03-04T04:11:05;99285.50;;;0.65;87.16
14120;BME280;7138;49.246;9.100;2023-03-04T04:13:31;99283.69;;;0.62;87.97
14120;BME280;7138;49.246;9.100;2023-03-04T04:15:56;99290.38;;;0.60;87.91
14120;BME280;7138;49.246;9.100;2023-03-04T04:18:24;99290.28;;;0.59;87.95
14120;BME280;7138;49.246;9.100;2023-03-04T04:20:51;99292.81;;;0.59;87.87
14120;BME280;7138;49.246;9.100;2023-03-04T04:23:16;99296.88;;;0.55;87.79
14120;BME280;7138;49.246;9.100;2023-03-04T04:25:42;99289.25;;;0.55;87.90
14120;BME280;7138;49.246;9.100;2023-03-04T04:28:09;99298.44;;;0.51;89.47
14120;BME280;7138;49.246;9.100;2023-03-04T04:30:35;99297.47;;;0.49;89.48
14120;BME280;7138;49.246;9.100;2023-03-04T04:33:01;99296.44;;;0.46;90.31
14120;BME280;7138;49.246;9.100;2023-03-04T04:35:29;99289.06;;;0.33;91.89
14120;BME280;7138;49.246;9.100;2023-03-04T04:37:55;99296.16;;;0.40;90.80
14120;BME280;7138;49.246;9.100;2023-03-04T04:40:21;99302.78;;;0.36;92.14
14120;BME280;7138;49.246;9.100;2023-03-04T04:42:47;99295.72;;;0.31;92.70
14120;BME280;7138;49.246;9.100;2023-03-04T04:45:15;99299.84;;;0.29;92.98
14120;BME280;7138;49.246;9.100;2023-03-04T04:47:41;99300.44;;;0.23;92.81
14120;BME280;7138;49.246;9.100;2023-03-04T04:50:08;99302.50;;;0.30;92.39
14120;BME280;7138;49.246;9.100;2023-03-04T04:52:34;99305.03;;;0.30;92.46
14120;BME280;7138;49.246;9.100;2023-03-04T04:55:01;99302.56;;;0.32;91.55
14120;BME280;7138;49.246;9.100;2023-03-04T04:57:27;99306.03;;;0.34;91.40
14120;BME280;7138;49.246;9.100;2023-03-04T04:59:52;99301.09;;;0.37;90.80
14120;BME280;7138;49.246;9.100;2023-03-04T05:02:20;99307.16;;;0.39;90.59
14120;BME280;7138;49.246;9.100;2023-03-04T05:04:46;99308.72;;;0.37;91.20
14120;BME280;7138;49.246;9.100;2023-03-04T05:07:12;99316.50;;;0.40;91.04
14120;BME280;7138;49.246;9.100;2023-03-04T05:09:37;99317.22;;;0.37;90.96
14120;BME280;7138;49.246;9.100;2023-03-04T05:12:03;99308.66;;;0.35;90.86
14120;BME280;7138;49.246;9.100;2023-03-04T05:14:29;99306.13;;;0.35;90.68
14120;BME280;7138;49.246;9.100;2023-03-04T05:16:55;99306.91;;;0.34;90.46
14120;BME280;7138;49.246;9.100;2023-03-04T05:19:22;99314.63;;;0.36;90.45
14120;BME280;7138;49.246;9.100;2023-03-04T05:21:48;99312.13;;;0.37;90.27
14120;BME280;7138;49.246;9.100;2023-03-04T05:24:14;99311.41;;;0.40;90.49
14120;BME280;7138;49.246;9.100;2023-03-04T05:26:40;99305.63;;;0.42;90.30
14120;BME280;7138;49.246;9.100;2023-03-04T05:29:06;99300.69;;;0.45;89.98
14120;BME280;7138;49.246;9.100;2023-03-04T05:31:32;99301.69;;;0.49;90.39
14120;BME280;7138;49.246;9.100;2023-03-04T05:33:58;99307.75;;;0.51;90.47
14120;BME280;7138;49.246;9.100;2023-03-04T05:36:25;99307.22;;;0.58;89.76
14120;BME280;7138;49.246;9.100;2023-03-04T05:38:51;99311.50;;;0.59;91.07
14120;BME280;7138;49.246;9.100;2023-03-04T05:41:17;99308.25;;;0.62;90.92
14120;BME280;7138;49.246;9.100;2023-03-04T05:43:47;99305.78;;;0.63;91.64
14120;BME280;7138;49.246;9.100;2023-03-04T05:46:16;99314.50;;;0.68;91.25
14120;BME280;7138;49.246;9.100;2023-03-04T05:48:43;99315.66;;;0.75;90.51
14120;BME280;7138;49.246;9.100;2023-03-04T05:51:09;99306.72;;;0.83;90.96
14120;BME280;7138;49.246;9.100;2023-03-04T05:53:37;99306.94;;;0.87;90.59
14120;BME280;7138;49.246;9.100;2023-03-04T05:56:07;99306.34;;;0.93;90.14
14120;BME280;7138;49.246;9.100;2023-03-04T05:58:33;99310.84;;;0.98;90.52
14120;BME280;7138;49.246;9.100;2023-03-04T06:00:59;99311.88;;;1.02;90.43
14120;BME280;7138;49.246;9.100;2023-03-04T06:03:25;99312.19;;;1.09;89.60
14120;BME280;7138;49.246;9.100;2023-03-04T06:05:52;99304.72;;;1.13;89.45
14120;BME280;7138;49.246;9.100;2023-03-04T06:08:18;99307.66;;;1.22;89.61
14120;BME280;7138;49.246;9.100;2023-03-04T06:10:46;99316.41;;;1.27;89.53
14120;BME280;7138;49.246;9.100;2023-03-04T06:13:12;99306.38;;;1.30;88.88
14120;BME280;7138;49.246;9.100;2023-03-04T06:15:38;99316.88;;;1.37;89.46
14120;BME280;7138;49.246;9.100;2023-03-04T06:18:04;99310.25;;;1.41;89.28
14120;BME280;7138;49.246;9.100;2023-03-04T06:20:30;99314.47;;;1.40;89.83
14120;BME280;7138;49.246;9.100;2023-03-04T06:22:56;99321.69;;;1.49;88.99
14120;BME280;7138;49.246;9.100;2023-03-04T06:25:22;99321.94;;;1.55;88.96
14120;BME280;7138;49.246;9.100;2023-03-04T06:27:49;99322.94;;;1.58;88.91
14120;BME280;7138;49.246;9.100;2023-03-04T06:30:16;99319.00;;;1.65;88.67
14120;BME280;7138;49.246;9.100;2023-03-04T06:32:42;99328.38;;;1.66;89.83
14120;BME280;7138;49.246;9.100;2023-03-04T06:35:09;99330.06;;;1.65;89.57
14120;BME280;7138;49.246;9.100;2023-03-04T06:37:35;99333.94;;;1.77;89.12
14120;BME280;7138;49.246;9.100;2023-03-04T06:40:01;99334.22;;;1.83;89.33
14120;BME280;7138;49.246;9.100;2023-03-04T06:42:28;99331.00;;;1.87;89.25
14120;BME280;7138;49.246;9.100;2023-03-04T06:44:55;99335.63;;;1.95;89.37
14120;BME280;7138;49.246;9.100;2023-03-04T06:47:21;99330.78;;;2.01;89.36
14120;BME280;7138;49.246;9.100;2023-03-04T06:49:47;99340.44;;;2.08;88.78
14120;BME280;7138;49.246;9.100;2023-03-04T06:52:13;99343.78;;;2.07;89.80
14120;BME280;7138;49.246;9.100;2023-03-04T06:54:39;99343.78;;;2.07;89.57
14120;BME280;7138;49.246;9.100;2023-03-04T06:57:05;99339.78;;;2.12;90.29
14120;BME280;7138;49.246;9.100;2023-03-04T06:59:31;99335.78;;;2.19;90.26
14120;BME280;7138;49.246;9.100;2023-03-04T07:01:58;99341.13;;;2.25;89.98
14120;BME280;7138;49.246;9.100;2023-03-04T07:04:24;99349.13;;;2.33;89.29
14120;BME280;7138;49.246;9.100;2023-03-04T07:06:50;99348.63;;;2.41;89.45
14120;BME280;7138;49.246;9.100;2023-03-04T07:09:16;99342.91;;;2.47;90.25
14120;BME280;7138;49.246;9.100;2023-03-04T07:11:45;99353.31;;;2.51;90.38
14120;BME280;7138;49.246;9.100;2023-03-04T07:14:11;99357.00;;;2.58;89.61
14120;BME280;7138;49.246;9.100;2023-03-04T07:16:37;99360.72;;;2.66;89.74
14120;BME280;7138;49.246;9.100;2023-03-04T07:19:04;99355.00;;;2.71;89.54
14120;BME280;7138;49.246;9.100;2023-03-04T07:21:30;99362.16;;;2.80;90.20
14120;BME280;7138;49.246;9.100;2023-03-04T07:23:56;99370.13;;;2.88;89.98
14120;BME280;7138;49.246;9.100;2023-03-04T07:26:22;99364.47;;;2.95;89.61
14120;BME280;7138;49.246;9.100;2023-03-04T07:28:48;99374.09;;;3.02;89.67
14120;BME280;7138;49.246;9.100;2023-03-04T07:31:22;99366.63;;;3.06;89.62
14120;BME280;7138;49.246;9.100;2023-03-04T07:33:48;99371.09;;;3.12;88.55
14120;BME280;7138;49.246;9.100;2023-03-04T07:36:16;99375.66;;;3.19;88.71
14120;BME280;7138;49.246;9.100;2023-03-04T07:38:44;99381.84;;;3.25;88.66
14120;BME280;7138;49.246;9.100;2023-03-04T07:41:11;99380.38;;;3.30;88.55
14120;BME280;7138;49.246;9.100;2023-03-04T07:43:37;99372.94;;;3.37;88.48
14120;BME280;7138;49.246;9.100;2023-03-04T07:46:04;99378.16;;;3.40;88.61
14120;BME280;7138;49.246;9.100;2023-03-04T07:48:30;99374.16;;;3.46;88.39
14120;BME280;7138;49.246;9.100;2023-03-04T07:51:08;99365.72;;;3.49;89.08
14120;BME280;7138;49.246;9.100;2023-03-04T07:53:37;99377.22;;;3.60;88.88
14120;BME280;7138;49.246;9.100;2023-03-04T07:56:05;99384.09;;;3.61;88.07
14120;BME280;7138;49.246;9.100;2023-03-04T07:58:32;99380.91;;;3.68;88.17
14120;BME280;7138;49.246;9.100;2023-03-04T08:00:58;99373.31;;;3.69;88.96
14120;BME280;7138;49.246;9.100;2023-03-04T08:03:24;99383.19;;;3.82;89.09
14120;BME280;7138;49.246;9.100;2023-03-04T08:05:50;99379.19;;;3.89;89.02
14120;BME280;7138;49.246;9.100;2023-03-04T08:08:16;99386.25;;;3.96;88.47
14120;BME280;7138;49.246;9.100;2023-03-04T08:10:44;99383.22;;;4.06;89.06
14120;BME280;7138;49.246;9.100;2023-03-04T08:13:10;99381.84;;;4.16;88.73
14120;BME280;7138;49.246;9.100;2023-03-04T08:15:39;99386.31;;;4.21;88.26
14120;BME280;7138;49.246;9.100;2023-03-04T08:18:05;99385.41;;;4.19;88.69
14120;BME280;7138;49.246;9.100;2023-03-04T08:20:31;99384.44;;;4.17;88.90
14120;BME280;7138;49.246;9.100;2023-03-04T08:22:57;99386.09;;;4.15;89.13
14120;BME280;7138;49.246;9.100;2023-03-04T08:25:22;99382.00;;;4.20;88.84
14120;BME280;7138;49.246;9.100;2023-03-04T08:27:49;99384.53;;;4.19;89.11
14120;BME280;7138;49.246;9.100;2023-03-04T08:30:15;99380.38;;;4.22;89.56
14120;BME280;7138;49.246;9.100;2023-03-04T08:32:41;99386.63;;;4.30;89.22
14120;BME280;7138;49.246;9.100;2023-03-04T08:35:07;99389.28;;;4.33;89.68
14120;BME280;7138;49.246;9.100;2023-03-04T08:37:33;99387.53;;;4.32;88.05
14120;BME280;7138;49.246;9.100;2023-03-04T08:39:59;99387.66;;;4.35;89.17
14120;BME280;7138;49.246;9.100;2023-03-04T08:42:24;99382.03;;;4.46;89.37
14120;BME280;7138;49.246;9.100;2023-03-04T08:44:55;99373.69;;;4.51;88.80
14120;BME280;7138;49.246;9.100;2023-03-04T08:47:21;99383.69;;;4.69;88.34
14120;BME280;7138;49.246;9.100;2023-03-04T08:49:46;99384.09;;;4.81;88.29
14120;BME280;7138;49.246;9.100;2023-03-04T08:52:12;99380.84;;;4.86;87.47
14120;BME280;7138;49.246;9.100;2023-03-04T08:54:38;99381.91;;;4.93;86.98
14120;BME280;7138;49.246;9.100;2023-03-04T08:57:04;99388.28;;;5.04;86.92
14120;BME280;7138;49.246;9.100;2023-03-04T08:59:32;99380.81;;;5.12;87.29
14120;BME280;7138;49.246;9.100;2023-03-04T09:01:59;99381.88;;;5.18;86.76
14120;BME280;7138;49.246;9.100;2023-03-04T09:04:24;99381.38;;;5.28;86.55
14120;BME280;7138;49.246;9.100;2023-03-04T09:06:50;99380.97;;;5.44;86.10
14120;BME280;7138;49.246;9.100;2023-03-04T09:09:16;99384.75;;;5.56;85.88
14120;BME280;7138;49.246;9.100;2023-03-04T09:11:41;99388.31;;;5.61;84.94
14120;BME280;7138;49.246;9.100;2023-03-04T09:14:07;99385.03;;;5.65;85.48
14120;BME280;7138;49.246;9.100;2023-03-04T09:16:33;99387.81;;;5.72;84.93
14120;BME280;7138;49.246;9.100;2023-03-04T09:19:00;99381.97;;;5.78;83.74
14120;BME280;7138;49.246;9.100;2023-03-04T09:21:26;99385.50;;;5.80;82.80
14120;BME280;7138;49.246;9.100;2023-03-04T09:23:51;99381.25;;;5.82;82.63
14120;BME280;7138;49.246;9.100;2023-03-04T09:26:20;99392.44;;;5.84;81.36
14120;BME280;7138;49.246;9.100;2023-03-04T09:28:49;99390.44;;;5.74;79.80
14120;BME280;7138;49.246;9.100;2023-03-04T09:31:14;99394.25;;;5.58;78.74
14120;BME280;7138;49.246;9.100;2023-03-04T09:33:40;99399.91;;;5.48;79.26
14120;BME280;7138;49.246;9.100;2023-03-04T09:36:10;99403.47;;;5.25;78.63
14120;BME280;7138;49.246;9.100;2023-03-04T09:38:36;99413.31;;;5.13;78.53
14120;BME280;7138;49.246;9.100;2023-03-04T09:41:05;99407.22;;;5.09;78.85
14120;BME280;7138;49.246;9.100;2023-03-04T09:43:32;99412.16;;;5.03;79.50
14120;BME280;7138;49.246;9.100;2023-03-04T09:46:01;99409.72;;;5.08;80.21
14120;BME280;7138;49.246;9.100;2023-03-04T09:48:31;99406.34;;;5.09;79.64
14120;BME280;7138;49.246;9.100;2023-03-04T09:51:13;99406.16;;;5.03;79.48
14120;BME280;7138;49.246;9.100;2023-03-04T09:53:47;99414.84;;;5.08;79.49
14120;BME280;7138;49.246;9.100;2023-03-04T09:56:15;99414.03;;;5.09;79.29
14120;BME280;7138;49.246;9.100;2023-03-04T09:58:47;99422.31;;;5.00;78.67
14120;BME280;7138;49.246;9.100;2023-03-04T10:01:19;99418.63;;;4.92;78.70
14120;BME280;7138;49.246;9.100;2023-03-04T10:03:50;99419.75;;;4.75;78.94
14120;BME280;7138;49.246;9.100;2023-03-04T10:06:19;99417.81;;;4.68;78.61
14120;BME280;7138;49.246;9.100;2023-03-04T10:08:51;99420.41;;;4.69;77.95
14120;BME280;7138;49.246;9.100;2023-03-04T10:11:23;99417.34;;;4.79;78.22
14120;BME280;7138;49.246;9.100;2023-03-04T10:13:58;99413.19;;;4.83;78.67
14120;BME280;7138;49.246;9.100;2023-03-04T10:16:31;99411.16;;;4.98;78.45
14120;BME280;7138;49.246;9.100;2023-03-04T10:19:02;99418.16;;;5.04;78.62
14120;BME280;7138;49.246;9.100;2023-03-04T10:21:39;99409.59;;;5.03;77.57
14120;BME280;7138;49.246;9.100;2023-03-04T10:24:11;99412.66;;;5.18;78.94
14120;BME280;7138;49.246;9.100;2023-03-04T10:26:38;99407.13;;;5.33;78.17
14120;BME280;7138;49.246;9.100;2023-03-04T10:29:05;99390.03;;;5.32;76.71
14120;BME280;7138;49.246;9.100;2023-03-04T10:31:33;99401.56;;;5.46;76.26
14120;BME280;7138;49.246;9.100;2023-03-04T10:34:01;99404.94;;;5.45;76.40
14120;BME280;7138;49.246;9.100;2023-03-04T10:36:52;99411.28;;;5.29;76.40
14120;BME280;7138;49.246;9.100;2023-03-04T10:39:21;99405.50;;;5.35;77.68
14120;BME280;7138;49.246;9.100;2023-03-04T10:41:55;99406.31;;;5.07;82.20
14120;BME280;7138;49.246;9.100;2023-03-04T10:44:22;99404.16;;;5.19;83.21
14120;BME280;7138;49.246;9.100;2023-03-04T10:46:48;99407.59;;;5.20;83.63
14120;BME280;7138;49.246;9.100;2023-03-04T10:49:17;99395.19;;;5.07;84.55
14120;BME280;7138;49.246;9.100;2023-03-04T10:51:45;99401.78;;;5.25;83.65
14120;BME280;7138;49.246;9.100;2023-03-04T10:54:22;99406.81;;;5.22;83.78
14120;BME280;7138;49.246;9.100;2023-03-04T10:56:57;99391.66;;;5.30;84.19
14120;BME280;7138;49.246;9.100;2023-03-04T10:59:39;99391.94;;;5.39;83.07
14120;BME280;7138;49.246;9.100;2023-03-04T11:02:20;99388.84;;;5.49;82.52
14120;BME280;7138;49.246;9.100;2023-03-04T11:04:49;99386.31;;;5.50;81.35
14120;BME280;7138;49.246;9.100;2023-03-04T11:07:15;99381.25;;;5.53;81.60
14120;BME280;7138;49.246;9.100;2023-03-04T11:09:43;99373.13;;;5.67;80.60
14120;BME280;7138;49.246;9.100;2023-03-04T11:12:12;99376.59;;;5.69;80.85
14120;BME280;7138;49.246;9.100;2023-03-04T11:14:40;99375.34;;;5.84;80.44
14120;BME280;7138;49.246;9.100;2023-03-04T11:17:19;99362.81;;;5.93;79.91
14120;BME280;7138;49.246;9.100;2023-03-04T11:19:47;99362.19;;;6.02;80.23
14120;BME280;7138;49.246;9.100;2023-03-04T11:22:19;99371.38;;;5.94;78.17
14120;BME280;7138;49.246;9.100;2023-03-04T11:24:54;99366.41;;;6.00;79.07
14120;BME280;7138;49.246;9.100;2023-03-04T11:27:24;99366.59;;;6.06;79.53
14120;BME280;7138;49.246;9.100;2023-03-04T11:29:56;99362.34;;;6.07;79.41
14120;BME280;7138;49.246;9.100;2023-03-04T11:32:27;99367.56;;;6.11;78.53
14120;BME280;7138;49.246;9.100;2023-03-04T11:34:58;99362.41;;;6.10;77.94
14120;BME280;7138;49.246;9.100;2023-03-04T11:37:29;99358.97;;;6.09;77.92
14120;BME280;7138;49.246;9.100;2023-03-04T11:39:58;99363.22;;;6.09;78.48
14120;BME280;7138;49.246;9.100;2023-03-04T11:42:32;99361.47;;;6.06;77.38
14120;BME280;7138;49.246;9.100;2023-03-04T11:45:03;99356.38;;;6.08;77.86
14120;BME280;7138;49.246;9.100;2023-03-04T11:47:38;99355.97;;;5.94;76.68
14120;BME280;7138;49.246;9.100;2023-03-04T11:50:28;99360.81;;;5.85;78.18
14120;BME280;7138;49.246;9.100;2023-03-04T11:53:17;99351.56;;;5.88;77.70
14120;BME280;7138;49.246;9.100;2023-03-04T11:55:50;99344.03;;;5.94;78.97
14120;BME280;7138;49.246;9.100;2023-03-04T11:58:39;99334.09;;;6.07;78.67
14120;BME280;7138;49.246;9.100;2023-03-04T12:01:14;99336.84;;;6.14;77.57
14120;BME280;7138;49.246;9.100;2023-03-04T12:04:00;99337.97;;;6.24;77.59
14120;BME280;7138;49.246;9.100;2023-03-04T12:06:34;99337.66;;;6.12;76.43
14120;BME280;7138;49.246;9.100;2023-03-04T12:09:12;99331.69;;;6.13;77.37
14120;BME280;7138;49.246;9.100;2023-03-04T12:11:50;99324.91;;;6.15;76.29
14120;BME280;7138;49.246;9.100;2023-03-04T12:14:25;99327.44;;;6.13;75.61
14120;BME280;7138;49.246;9.100;2023-03-04T12:17:18;99324.72;;;6.09;77.01
14120;BME280;7138;49.246;9.100;2023-03-04T12:19:58;99324.78;;;6.10;76.74
14120;BME280;7138;49.246;9.100;2023-03-04T12:22:34;99325.78;;;6.15;76.76
14120;BME280;7138;49.246;9.100;2023-03-04T12:25:34;99322.94;;;6.06;75.10
14120;BME280;7138;49.246;9.100;2023-03-04T12:28:15;99318.72;;;6.08;74.86
14120;BME280;7138;49.246;9.100;2023-03-04T12:30:56;99313.19;;;6.24;76.35
14120;BME280;7138;49.246;9.100;2023-03-04T12:33:34;99304.88;;;6.34;75.23
14120;BME280;7138;49.246;9.100;2023-03-04T12:36:12;99296.41;;;6.38;75.95
14120;BME280;7138;49.246;9.100;2023-03-04T12:38:59;99300.56;;;6.32;73.46
14120;BME280;7138;49.246;9.100;2023-03-04T12:41:39;99294.47;;;6.30;73.42
14120;BME280;7138;49.246;9.100;2023-03-04T12:44:19;99280.91;;;6.34;74.84
14120;BME280;7138;49.246;9.100;2023-03-04T12:47:02;99287.28;;;6.49;75.81
14120;BME280;7138;49.246;9.100;2023-03-04T12:49:40;99294.56;;;6.33;73.06
14120;BME280;7138;49.246;9.100;2023-03-04T12:52:15;99292.63;;;6.24;73.48
14120;BME280;7138;49.246;9.100;2023-03-04T12:54:48;99291.75;;;6.24;74.45
14120;BME280;7138;49.246;9.100;2023-03-04T12:57:16;99291.81;;;6.25;74.23
14120;BME280;7138;49.246;9.100;2023-03-04T12:59:51;99292.88;;;6.33;74.02
14120;BME280;7138;49.246;9.100;2023-03-04T13:02:50;99292.78;;;6.30;74.26
14120;BME280;7138;49.246;9.100;2023-03-04T13:05:27;99292.78;;;6.30;75.75
14120;BME280;7138;49.246;9.100;2023-03-04T13:08:00;99291.91;;;6.30;75.72
14120;BME280;7138;49.246;9.100;2023-03-04T13:10:28;99292.03;;;6.34;74.39
14120;BME280;7138;49.246;9.100;2023-03-04T13:12:55;99280.16;;;6.38;74.68
14120;BME280;7138;49.246;9.100;2023-03-04T13:15:33;99287.09;;;6.42;74.06
14120;BME280;7138;49.246;9.100;2023-03-04T13:18:02;99282.03;;;6.45;74.28
14120;BME280;7138;49.246;9.100;2023-03-04T13:20:35;99287.94;;;6.41;72.03
14120;BME280;7138;49.246;9.100;2023-03-04T13:23:02;99274.16;;;6.37;72.82
14120;BME280;7138;49.246;9.100;2023-03-04T13:25:38;99281.66;;;6.30;73.14
14120;BME280;7138;49.246;9.100;2023-03-04T13:28:21;99279.28;;;6.37;74.35
14120;BME280;7138;49.246;9.100;2023-03-04T13:31:25;99274.81;;;6.30;73.31